Fengning, China
Current Conditions -  °F | °C
As of 10:30 PM on Friday 19 Dec 2014 (Local Time) from ZBAA Reporting Station
Clear Clear  
Wind Chill: 16°   Ceiling: Unl
Heat Index: 28°   Visibility: 6mi
Dew Point:   Wind: 18mph
Humidity: 29%   Direction: 320°NW
Pressure: 30.45"   Gusts: NA
Location:  41.22°N, 116.63°E
Report Text: ZBAA 191430Z 32008MPS CAVOK M02/M18 Q1031 NOSIG
Loading
Personal Weather Stations






























Interactive Weather Map New forecast layout! Learn more

10-Day Weather Forecast

Advertisements
Track Severe Weather on mobile